Sagehen Creek Weather observations

Data are for observation ending at time listed.
 Day   Time    Ave.   Ave.  Ave.  Vector   Max.   Stn.    Total    Solar   Ave.  
  of    of     Air    Rel.  Wind   Wind    Wind   Baro.  Precip.   Rad.    Soil  
Year   Day     Temp.  Hum.  Speed  Dir.    Gust   Pres.                    Temp. 
2015   (PST)    F      %     mph   deg.    mph     mb.     in.     W/m2     F   
------------------------------------------------------------------------------
 247    2:10   32.8    91    0.3   243      1.9   832.8   18.15       0    999.0
 247    2:20   32.5    92    0.3   288      1.7   832.8   18.15       0    999.0
 247    2:30   32.4    92    0.6   312      2.1   832.7   18.16       0    999.0
 247    2:40   32.1    92    0.4   303      1.9   832.6   18.15       0    999.0
 247    2:50   32.0    92    0.2   294      1.5   832.7   18.15       0    999.0
 247    3:00   31.7    92    0.5   233      1.6   832.7   18.15       0    999.0
 247    3:10   31.5    92    0.4   293      1.8   832.4   18.16       0    999.0
 247    3:20   31.5    92    0.5   274      1.7   832.5   18.16       0    999.0
 247    3:30   31.3    92    0.5   267      2.1   832.6   18.16       0    999.0
 247    3:40   31.3    92    0.7   248      3.9   832.5   18.16       0    999.0
 247    3:50   33.9    94    1.4   260      4.2   832.5   18.16       0    999.0
 247    4:00   36.7    94    1.4   252      2.6   832.5   18.15       0    999.0
 247    4:10   38.3    94    1.6   247      3.3   832.3   18.15       0    999.0
 247    4:20   39.8    90    2.2   257      5.2   832.3   18.15       0    999.0
 247    4:30   40.3    87    1.6   241      3.7   832.3   18.15       0    999.0
 247    4:40   40.7    86    1.9   251      5.2   832.2   18.16       0    999.0
 247    4:50   41.2    84    1.8   248      3.5   832.3   18.15       0    999.0
 247    5:00   41.9    82    1.9   251      3.5   832.3   18.15       0    999.0
 247    5:10   41.8    81    2.0   242      3.9   831.9   18.15       0    999.0
 247    5:20   42.4    79    2.3   253      4.7   832.0   18.15       0    999.0
 247    5:30   40.6    64    1.3   238      1.8    75.6   18.15       2    999.0
 247    5:40   41.9    79    1.5   249      2.7   832.0   18.16       4    999.0
 247    5:50   40.9    80    1.5   247      2.6   832.2   18.16       8    999.0
 247    6:00   39.9    82    2.0   261      3.3   832.5   18.16      11    999.0
 247    6:10   40.3    81    2.1   266      5.6   832.3   18.16      15    999.0
 247    6:20   42.6    75    1.3   261      5.3   832.2   18.16      82    999.0
 247    6:30   44.2    71    1.7   261      3.6   832.2   18.17     144    999.0
 247    6:40   46.9    64    2.2   267      5.6   832.6   18.17     171    999.0
 247    6:50   48.8    59    1.7   246      5.1   832.4   18.17     199    999.0
 247    7:00   49.8    56    2.5   170      6.9   832.2   18.17     233    999.0
 247    7:10   50.9    56    2.2   258      5.0   832.6   18.16     265    999.0
 247    7:20   51.5    56    2.3   262      5.9   832.5   18.15     292    999.0
 247    7:30   51.8    54    3.3   275      6.4   832.3   18.15     338    999.0
 247    7:40   52.7    52    2.6   144      7.0   832.4   18.15     404    999.0
 247    7:50   52.8    52    3.1   188     10.4   832.4   18.15     446    999.0
 247    8:00   53.7    51    3.4   280      6.8   832.3   18.16     516    999.0
 247    8:10   53.8    51    3.0   143      7.1   831.9   18.16     512    999.0
 247    8:20   54.0    50    3.3   151      8.3   832.0   18.16     556    999.0
 247    8:30   54.3    51    3.2   162      9.2   832.1   18.16     571    999.0
 247    8:40   54.4    50    2.9   181      8.4   832.2   18.16     479    999.0
 247    8:50   55.6    47    2.6   269      8.2   832.2   18.16     609    999.0
 247    9:00   55.5    44    3.7   280     11.8   832.2   18.16     554    999.0
 247    9:10   55.5    42    2.8   294     11.1   832.2   18.16     537    999.0
 247    9:20   56.5    41    2.6   228      7.3   832.1   18.16     668    999.0
 247    9:30   56.9    36    4.6   278     13.0   832.0   18.16     697    999.0
 247    9:40   57.3    36    3.5   243      8.3   831.8   18.16     721    999.0
 247    9:50   57.5    34    4.3   263     10.3   831.8   18.16     740    999.0
 247   10:00   57.4    33    4.7   298     12.2   831.7   18.15     720    999.0
 247   10:10   57.5    33    4.2   287      9.0   832.2   18.15     791    999.0
 247   10:20   57.6    32    4.0   289      9.4   832.2   18.15     797    999.0
 247   10:30   58.4    32    4.6   244     10.8   832.2   18.15     825    999.0
 247   10:40   59.1    31    3.6   179      8.5   832.2   18.15     841    999.0
 247   10:50   59.1    31    3.1   292     10.7   832.1   18.15     846    999.0
 247   11:00   61.3    31    2.4   238      9.1   832.0   18.15     747    999.0
 247   11:10   60.2    32    3.5   212     10.7   831.6   18.15     816    999.0
 247   11:20   60.0    32    2.5   225      6.0   831.7   18.15     561    999.0
 247   11:30   58.3    34    3.1   274      8.3   831.8   18.14     610    999.0
 247   11:40   59.5    33    4.4   262     13.9   831.9   18.14     732    999.0
 247   11:50   58.8    32    4.2   250      8.7   831.9   18.14     787    999.0
 247   12:00   60.3    30    3.3   195      8.0   831.9   18.14     910    999.0
 247   12:10   59.4    29    3.2   267      8.8   831.6   18.14     763    999.0
 247   12:20   59.1    30    4.6   272     11.7   831.5   18.14     648    999.0
 247   12:30   59.0    28    3.7   257      7.3   831.5   18.14     862    999.0
 247   12:40   59.7    26    4.2   274     14.6   831.9   18.14     875    999.0
 247   12:50   60.2    26    3.9   261     10.9   831.9   18.13     872    999.0
 247   13:00   60.6    24    3.5   243      9.7   832.0   18.13     872    999.0
 247   13:10   60.5    23    4.1   260      9.0   831.9   18.13     861    999.0
 247   13:20   59.7    24    3.9   272     10.6   831.7   18.13     845    999.0
 247   13:30   59.8    24    4.4   239     11.9   831.6   18.13     833    999.0
 247   13:40   60.0    22    4.8   276     11.2   831.8   18.13     820    999.0
 247   13:50   59.4    21    4.1   285      9.2   831.8   18.13     802    999.0
 247   14:00   59.7    21    4.1   284      8.4   831.9   18.13     786    999.0
 247   14:10   60.0    21    3.9   279      7.7   831.7   18.13     767    999.0
 247   14:20   60.6    21    3.3   263      7.8   831.6   18.12     750    999.0
 247   14:30   60.7    19    3.6   281      8.5   831.5   18.12     728    999.0
 247   14:40   59.8    19    4.2   243     12.2   831.2   18.12     709    999.0
 247   14:50   59.5    16    4.1   288      9.6   831.3   18.12     687    999.0
 247   15:00   58.9    18    4.5   271     13.3   831.4   18.12     660    999.0
 247   15:10   58.7    18    3.6   193     11.4   831.8   18.12     633    999.0
 247   15:20   58.3    16    4.7   268     13.5   831.9   18.12     607    999.0
 247   15:30   57.6    17    4.6   243     13.2   832.0   18.12     575    999.0
 247   15:40   57.9    16    3.7   251      8.7   832.2   18.13     545    999.0
 247   15:50   58.0    18    3.7   242      9.7   832.2   18.14     511    999.0
 247   16:00   56.9    18    4.1   220     12.1   832.2   18.14     480    999.0
 247   16:10   56.6    17    2.9   173      9.5   832.0   18.15     448    999.0
 247   16:20   56.5    15    3.0   201      7.2   832.0   18.15     416    999.0
 247   16:30   56.6    17    1.9   214      6.6   832.0   18.15     383    999.0
 247   16:40   57.0    18    1.9   247      6.6   832.6   18.15     350    999.0
 247   16:50   56.4    15    2.8   287      6.7   832.6   18.15     316    999.0
 247   17:00   55.7    15    2.3   240      7.3   832.6   18.15     263    999.0
 247   17:10   54.4    16    2.1   228      4.6   832.6   18.15     119    999.0
 247   17:20   53.1    17    2.0   223      8.7   832.6   18.15     196    999.0
 247   17:30   52.2    17    3.2   149     11.8   832.6   18.15      24    999.0
 247   17:40   51.6    19    1.3   160      5.7   832.5   18.15      20    999.0
 247   17:50   50.7    20    1.4   293      5.2   832.4   18.15      14    999.0
 247   18:00   49.7    23    1.2   287      3.4   832.3   18.15      12    999.0
 247   18:10   48.8    24    0.7   339      2.6   832.6   18.15       8    999.0
 247   18:20   47.1    32    0.4   197      1.2   832.7   18.15       6    999.0
 247   18:30   44.6    31    1.7   224      4.0    39.6   18.15       3    999.0
 247   18:40   44.8    33    0.5   241      2.0   832.4   18.15       1    999.0
 247   18:50   43.2    35    0.9   261      2.2   832.7   18.15       0    999.0
 247   19:00   41.9    34    1.4   272      3.3   833.0   18.15       0    999.0
 247   19:10   40.9    35    1.5   270      3.1   832.8   18.15       0    999.0
 247   19:20   40.2    36    1.8   274      2.7   832.9   18.15       0    999.0
 247   19:30   39.1    36    2.1   272      2.9   833.1   18.15       0    999.0
 247   19:40   38.7    38    1.8   271      3.5   832.7   18.15       0    999.0
 247   19:50   38.0    38    1.8   274      2.7   445.3   18.15       0    999.0
 247   20:00   37.1    41    1.8   269      3.3   833.1   18.15       0    999.0
 247   20:10   36.3    44    1.7   265      2.6   833.2   18.16       0    999.0
 247   20:20   35.5    45    1.6   273      2.7   833.0   18.15       0    999.0
 247   20:30   34.9    45    1.6   269      2.2   832.8   18.15       0    999.0
 247   20:40   34.1    47    1.6   264      2.9   833.1   18.15       0    999.0
 247   20:50   33.4    51    1.3   252      2.0   833.2   18.15       0    999.0
 247   21:00   32.9    51    1.0   244      2.0   833.3   18.15       0    999.0
 247   21:10   32.2    55    0.1   254      0.9   832.8   18.16       0    999.0
 247   21:20   31.2    56    0.0     0      0.0   833.1   18.16       0    999.0
 247   21:30   30.1    59    0.0     0      0.0   833.4   18.15       0    999.0
 247   21:40   29.2    61    0.0   270      0.2   833.2   18.16       0    999.0
 247   21:50   28.7    62    0.0   249      0.7   833.2   18.15       0    999.0
 247   22:00   28.6    63    0.1   264      0.8   833.2   18.16       0    999.0
 247   22:10   28.3    63    0.2   258      0.9   833.6   18.15       0    999.0
 247   22:20   28.1    62    0.1   266      0.8   833.7   18.15       0    999.0
 247   22:30   27.6    65    0.1   272      0.8   833.8   18.15       0    999.0
 247   22:40   27.4    64    0.5   260      1.2   833.6   18.16       0    999.0
 247   22:50   27.1    66    0.1   261      0.8   833.6   18.16       0    999.0
 247   23:00   26.8    65    0.0   260      0.3   833.6   18.16       0    999.0
 247   23:10   26.5    65    0.1   261      0.7   833.9   18.16       0    999.0
 247   23:20   26.3    65    0.2   259      1.0   833.9   18.16       0    999.0
 247   23:30   26.2    65    0.6   260      1.2   833.8   18.16       0    999.0
 247   23:40   26.1    66    0.2   259      0.7   833.6   18.16       0    999.0
 247   23:50   26.0    65    0.4   260      0.8   833.9   18.16       0    999.0
 248    0:00   25.9    66    0.3   255      0.9   834.1   18.16       0    999.0
 248    0:10   25.9    65    0.3   264      0.9   833.9   18.16       0    999.0
 248    0:20   26.0    64    0.7   262      1.3   833.9   18.16       0    999.0
 248    0:30   25.9    66    0.1   251      0.8   833.8   18.16       0    999.0
 248    0:40   25.7    67    0.1   248      0.9   834.2   18.16       0    999.0
 248    0:50   25.7    67    0.3   258      0.9   834.1   18.16       0    999.0
 248    1:00   25.5    68    0.1   256      0.9   834.0   18.16       0    999.0
 248    1:10   25.4    68    0.3   252      0.8   834.1   18.16       0    999.0
 248    1:20   25.3    68    0.1   236      0.6   834.1   18.16       0    999.0
 248    1:30   25.3    68    0.0   242      0.6   834.2   18.16       0    999.0
 248    1:40   25.2    68    0.2   246      0.8   833.9   18.16       0    999.0
 248    1:50   25.2    69    0.2   259      0.8   833.9   18.16       0    999.0
 248    2:00   25.1    68    0.2   264      1.0   834.0   18.16       0    999.0

Return to Sagehen Creek graphs page.


Western Regional Climate Center,wrcc@dri.edu